createdAt,value
2022-10-02T00:00:14.491Z,96.37
2022-10-02T00:02:56.548Z,96.74
2022-10-02T00:05:36.034Z,96.11
2022-10-02T00:08:23.291Z,96.21
2022-10-02T00:11:01.420Z,96.38
2022-10-02T00:13:52.950Z,96.00
2022-10-02T00:16:37.962Z,95.69
2022-10-02T00:19:12.132Z,96.20
2022-10-02T00:21:57.414Z,96.32
2022-10-02T00:24:43.785Z,96.26
2022-10-02T00:27:40.233Z,96.05
2022-10-02T00:30:15.007Z,96.38
2022-10-02T00:32:59.452Z,96.58
2022-10-02T00:36:26.094Z,96.46
2022-10-02T00:39:21.728Z,96.31
2022-10-02T00:42:30.300Z,97.01
2022-10-02T00:45:17.048Z,96.70
2022-10-02T00:47:48.257Z,96.34
2022-10-02T00:50:44.276Z,96.40
2022-10-02T00:53:38.470Z,96.40
2022-10-02T00:56:21.565Z,96.20
2022-10-02T00:59:19.161Z,96.33
2022-10-02T01:02:00.145Z,96.13
2022-10-02T01:04:35.310Z,96.22
2022-10-02T01:07:10.058Z,96.32
2022-10-02T01:09:41.806Z,96.74
2022-10-02T01:12:14.871Z,96.81
2022-10-02T01:14:46.091Z,96.95
2022-10-02T01:17:28.129Z,97.10
2022-10-02T01:20:04.068Z,97.34
2022-10-02T01:22:54.628Z,97.10
2022-10-02T01:25:26.471Z,97.35
2022-10-02T01:27:58.193Z,97.53
2022-10-02T01:30:31.033Z,97.34
2022-10-02T01:33:05.670Z,97.41
2022-10-02T01:35:38.681Z,96.79
2022-10-02T01:38:13.538Z,96.93
2022-10-02T01:40:45.087Z,96.66
2022-10-02T01:43:23.366Z,96.68
2022-10-02T01:46:24.323Z,96.41
2022-10-02T01:49:23.686Z,96.28
2022-10-02T01:52:32.611Z,96.40
2022-10-02T01:55:22.350Z,96.23
2022-10-02T01:58:18.446Z,95.92
2022-10-02T02:01:02.394Z,96.36
2022-10-02T02:03:55.366Z,96.78
2022-10-02T02:06:34.366Z,96.82
2022-10-02T02:09:38.567Z,96.96
2022-10-02T02:12:20.894Z,97.23
2022-10-02T02:15:00.127Z,97.24
2022-10-02T02:17:40.353Z,97.36
2022-10-02T02:20:22.777Z,97.63
2022-10-02T02:22:58.391Z,97.26
2022-10-02T02:25:34.220Z,97.77
2022-10-02T02:28:10.602Z,97.26
2022-10-02T02:30:46.705Z,96.79
2022-10-02T02:33:24.356Z,96.72
2022-10-02T02:36:00.676Z,96.62
2022-10-02T02:38:39.841Z,96.36
2022-10-02T02:41:20.098Z,96.27
2022-10-02T02:44:18.466Z,95.96
2022-10-02T02:47:04.392Z,95.63
2022-10-02T02:49:53.238Z,95.91
2022-10-02T02:52:32.118Z,95.65
2022-10-02T02:55:09.253Z,96.13
2022-10-02T02:57:48.886Z,96.02
2022-10-02T03:00:20.846Z,96.28
2022-10-02T03:02:54.507Z,96.23
2022-10-02T03:05:28.082Z,96.26
2022-10-02T03:08:03.321Z,96.06
2022-10-02T03:11:05.226Z,96.07
2022-10-02T03:13:36.455Z,95.83
2022-10-02T03:16:38.462Z,96.27
2022-10-02T03:19:22.820Z,95.97
2022-10-02T03:22:12.708Z,96.15
2022-10-02T03:24:57.181Z,96.05
2022-10-02T03:27:44.821Z,95.38
2022-10-02T03:30:26.106Z,95.73
2022-10-02T03:33:00.876Z,95.88
2022-10-02T03:35:33.531Z,96.10
2022-10-02T03:38:07.742Z,96.05
2022-10-02T03:40:39.441Z,96.11
2022-10-02T03:43:19.835Z,96.24
2022-10-02T03:45:52.055Z,96.24
2022-10-02T03:48:23.498Z,96.21
2022-10-02T03:50:54.769Z,96.37
2022-10-02T03:53:30.957Z,96.02
2022-10-02T03:56:07.957Z,95.81
2022-10-02T03:58:43.149Z,95.86
2022-10-02T04:01:23.053Z,95.63
2022-10-02T04:04:01.900Z,95.66
2022-10-02T04:06:58.866Z,95.33
2022-10-02T04:09:46.510Z,95.64
2022-10-02T04:12:28.774Z,95.58
2022-10-02T04:15:21.453Z,96.01
2022-10-02T04:18:02.949Z,96.23
2022-10-02T04:20:46.687Z,95.94
2022-10-02T04:23:24.107Z,96.04
2022-10-02T04:26:03.545Z,95.79
2022-10-02T04:28:41.319Z,95.67
2022-10-02T04:31:14.002Z,96.03
2022-10-02T04:33:45.329Z,95.91
2022-10-02T04:36:34.065Z,95.96
2022-10-02T04:39:08.373Z,95.83
2022-10-02T04:41:55.793Z,95.79
2022-10-02T04:44:55.025Z,95.91
2022-10-02T04:47:38.285Z,96.37
2022-10-02T04:50:40.788Z,96.41
2022-10-02T04:53:40.166Z,96.89
2022-10-02T04:56:44.520Z,96.39
2022-10-02T04:59:24.519Z,97.02
2022-10-02T05:01:58.952Z,96.87
2022-10-02T05:04:33.281Z,96.72
2022-10-02T05:07:23.273Z,96.66
2022-10-02T05:10:23.017Z,96.50
2022-10-02T05:13:07.706Z,96.86
2022-10-02T05:16:08.573Z,96.52
2022-10-02T05:19:01.952Z,96.61
2022-10-02T05:21:56.847Z,96.54
2022-10-02T05:25:09.628Z,96.54
2022-10-02T05:28:10.042Z,96.15
2022-10-02T05:30:49.905Z,96.41
2022-10-02T05:33:37.557Z,96.21
2022-10-02T05:36:15.258Z,96.81
2022-10-02T05:38:57.014Z,97.20
2022-10-02T05:41:47.046Z,97.22
2022-10-02T05:44:24.074Z,97.65
2022-10-02T05:47:12.476Z,97.95
2022-10-02T05:50:05.421Z,98.22
2022-10-02T05:52:42.406Z,98.56
2022-10-02T05:55:18.603Z,98.51
2022-10-02T05:57:57.903Z,99.12
2022-10-02T06:00:51.955Z,99.17
2022-10-02T06:03:33.963Z,99.15
2022-10-02T06:06:05.303Z,98.94
2022-10-02T06:08:49.582Z,99.03
2022-10-02T06:11:30.120Z,99.20
2022-10-02T06:14:32.109Z,99.25
2022-10-02T06:17:08.899Z,99.24
2022-10-02T06:20:04.922Z,99.53
2022-10-02T06:22:44.807Z,99.25
2022-10-02T06:25:49.660Z,99.46
2022-10-02T06:28:26.524Z,99.43
2022-10-02T06:31:22.361Z,99.34
2022-10-02T06:33:53.994Z,99.21
2022-10-02T06:36:47.984Z,99.30
2022-10-02T06:39:46.845Z,99.49
2022-10-02T06:42:32.925Z,99.59
2022-10-02T06:45:04.246Z,99.57
2022-10-02T06:47:51.646Z,99.57
2022-10-02T06:50:42.910Z,99.36
2022-10-02T06:53:39.162Z,99.32
2022-10-02T06:56:29.675Z,99.11
2022-10-02T06:59:16.836Z,99.50
2022-10-02T07:01:57.417Z,99.32
2022-10-02T07:04:35.387Z,99.35
2022-10-02T07:07:41.234Z,99.54
2022-10-02T07:10:55.794Z,99.70
2022-10-02T07:14:10.042Z,99.57
2022-10-02T07:17:18.299Z,99.46
2022-10-02T07:20:45.642Z,99.76
2022-10-02T07:23:24.081Z,99.36
2022-10-02T07:26:17.271Z,99.66
2022-10-02T07:28:57.332Z,99.43
2022-10-02T07:31:57.380Z,99.18
2022-10-02T07:34:39.715Z,99.64
2022-10-02T07:37:36.500Z,99.47
2022-10-02T07:40:28.921Z,99.19
2022-10-02T07:43:19.058Z,99.18
2022-10-02T07:46:09.832Z,99.52
2022-10-02T07:48:47.626Z,99.26
2022-10-02T07:51:50.673Z,99.26
2022-10-02T07:54:47.757Z,98.96
2022-10-02T07:57:26.060Z,99.09
2022-10-02T08:00:05.302Z,98.93
2022-10-02T08:02:43.650Z,98.62
2022-10-02T08:05:43.760Z,98.29
2022-10-02T08:08:30.277Z,98.36
2022-10-02T08:11:14.455Z,98.43
2022-10-02T08:13:55.937Z,99.00
2022-10-02T08:16:33.393Z,99.42
2022-10-02T08:19:17.181Z,99.20
2022-10-02T08:21:57.109Z,99.31
2022-10-02T08:24:37.952Z,99.46
2022-10-02T08:27:20.269Z,99.43
2022-10-02T08:30:03.545Z,98.96
2022-10-02T08:32:36.507Z,99.44
2022-10-02T08:35:12.916Z,99.88
2022-10-02T08:38:12.281Z,100.00
2022-10-02T08:41:11.491Z,100.00
2022-10-02T08:44:14.768Z,99.33
2022-10-02T08:47:19.618Z,98.92
2022-10-02T08:50:14.837Z,98.82
2022-10-02T08:53:23.344Z,98.66
2022-10-02T08:56:24.214Z,98.98
2022-10-02T08:59:25.921Z,99.41
2022-10-02T09:02:31.539Z,99.27
2022-10-02T09:05:40.514Z,100.00
2022-10-02T09:08:33.302Z,100.00
2022-10-02T09:11:23.371Z,99.85
2022-10-02T09:14:10.083Z,99.47
2022-10-02T09:17:20.823Z,99.27
2022-10-02T09:20:05.814Z,99.30
2022-10-02T09:23:07.209Z,98.81
2022-10-02T09:25:58.599Z,98.08
2022-10-02T09:28:51.299Z,97.70
2022-10-02T09:31:41.497Z,98.52
2022-10-02T09:34:47.436Z,98.71
2022-10-02T09:37:37.512Z,98.81
2022-10-02T09:40:35.302Z,97.56
2022-10-02T09:43:33.522Z,96.73
2022-10-02T09:46:27.034Z,95.89
2022-10-02T09:49:04.937Z,96.11
2022-10-02T09:52:17.995Z,96.22
2022-10-02T09:55:29.189Z,96.07
2022-10-02T09:58:33.934Z,94.95
2022-10-02T10:01:11.325Z,95.49
2022-10-02T10:04:12.817Z,94.79
2022-10-02T10:07:08.438Z,94.91
2022-10-02T10:10:13.875Z,96.07
2022-10-02T10:13:27.923Z,96.16
2022-10-02T10:16:11.714Z,96.35
2022-10-02T10:19:03.874Z,95.60
2022-10-02T10:21:56.914Z,94.63
2022-10-02T10:24:39.988Z,94.18
2022-10-02T10:27:19.845Z,91.91
2022-10-02T10:30:14.054Z,91.58
2022-10-02T10:33:13.272Z,91.01
2022-10-02T10:36:45.876Z,90.08
2022-10-02T10:39:48.225Z,90.28
2022-10-02T10:43:07.442Z,89.01
2022-10-02T10:46:31.894Z,88.62
2022-10-02T10:49:18.264Z,87.68
2022-10-02T10:52:13.985Z,87.31
2022-10-02T10:55:12.262Z,86.53
2022-10-02T10:58:02.696Z,86.43
2022-10-02T11:00:44.746Z,86.11
2022-10-02T11:03:39.125Z,86.28
2022-10-02T11:06:30.294Z,86.17
2022-10-02T11:09:36.903Z,85.19
2022-10-02T11:12:39.113Z,84.81
2022-10-02T11:15:35.038Z,84.89
2022-10-02T11:18:21.270Z,84.12
2022-10-02T11:21:36.352Z,84.05
2022-10-02T11:24:18.325Z,83.88
2022-10-02T11:27:15.930Z,83.58
2022-10-02T11:30:12.533Z,83.73
2022-10-02T11:33:15.090Z,83.59
2022-10-02T11:36:05.206Z,82.89
2022-10-02T11:38:45.475Z,83.50
2022-10-02T11:41:46.634Z,82.33
2022-10-02T11:44:36.895Z,81.21
2022-10-02T11:47:10.862Z,81.94
2022-10-02T11:49:59.028Z,81.82
2022-10-02T11:52:46.002Z,81.01
2022-10-02T11:55:25.326Z,81.43
2022-10-02T11:58:21.460Z,80.63
2022-10-02T12:01:32.414Z,80.32
2022-10-02T12:04:22.193Z,80.79
2022-10-02T12:07:07.750Z,81.32
2022-10-02T12:10:06.687Z,81.29
2022-10-02T12:13:07.502Z,81.58
2022-10-02T12:15:52.574Z,82.73
2022-10-02T12:18:45.234Z,82.61
2022-10-02T12:21:48.330Z,82.91
2022-10-02T12:24:46.887Z,83.14
2022-10-02T12:27:57.060Z,81.80
2022-10-02T12:30:42.722Z,82.33
2022-10-02T12:33:21.213Z,81.64
2022-10-02T12:36:08.487Z,81.42
2022-10-02T12:38:57.250Z,80.93
2022-10-02T12:41:46.813Z,81.15
2022-10-02T12:44:26.881Z,81.05
2022-10-02T12:47:07.402Z,81.03
2022-10-02T12:49:47.819Z,81.01
2022-10-02T12:53:02.532Z,79.08
2022-10-02T12:55:54.391Z,80.06
2022-10-02T12:58:53.361Z,79.62
2022-10-02T13:01:49.521Z,79.92
2022-10-02T13:04:42.041Z,80.07
2022-10-02T13:07:45.411Z,80.01
2022-10-02T13:10:19.582Z,80.16
2022-10-02T13:13:15.636Z,79.98
2022-10-02T13:16:16.347Z,80.59
2022-10-02T13:19:06.423Z,81.18
2022-10-02T13:21:58.918Z,81.07
2022-10-02T13:24:46.057Z,80.83
2022-10-02T13:27:50.088Z,80.93
2022-10-02T13:30:26.163Z,81.17
2022-10-02T13:33:08.245Z,80.99
2022-10-02T13:35:52.779Z,81.44
2022-10-02T13:38:53.614Z,81.28
2022-10-02T13:41:37.070Z,81.36
2022-10-02T13:44:20.202Z,81.06
2022-10-02T13:47:10.994Z,80.46
2022-10-02T13:50:19.758Z,79.39
2022-10-02T13:52:56.718Z,79.29
2022-10-02T13:55:44.357Z,79.46
2022-10-02T13:58:23.721Z,79.70
2022-10-02T14:00:58.392Z,79.76
2022-10-02T14:03:54.682Z,79.28
2022-10-02T14:06:40.656Z,79.88
2022-10-02T14:09:11.988Z,79.73
2022-10-02T14:12:08.946Z,79.39
2022-10-02T14:14:40.141Z,79.89
2022-10-02T14:17:23.518Z,80.94
2022-10-02T14:20:21.719Z,80.31
2022-10-02T14:23:08.304Z,80.54
2022-10-02T14:25:45.585Z,80.23
2022-10-02T14:28:38.454Z,80.33
2022-10-02T14:31:34.769Z,80.11
2022-10-02T14:34:33.374Z,79.76
2022-10-02T14:37:42.300Z,80.07
2022-10-02T14:40:18.241Z,80.23
2022-10-02T14:42:50.766Z,79.49
2022-10-02T14:45:44.164Z,79.47
2022-10-02T14:48:51.919Z,78.47
2022-10-02T14:51:58.599Z,78.70
2022-10-02T14:54:41.798Z,79.12
2022-10-02T14:57:46.844Z,79.13
2022-10-02T15:00:20.952Z,79.32
2022-10-02T15:02:52.234Z,79.26
2022-10-02T15:05:36.059Z,79.43
2022-10-02T15:08:16.545Z,79.29
2022-10-02T15:10:51.570Z,79.10
2022-10-02T15:13:43.845Z,78.99
2022-10-02T15:17:00.814Z,78.92
2022-10-02T15:19:50.126Z,79.50
2022-10-02T15:22:25.964Z,79.62
2022-10-02T15:25:06.514Z,79.49
2022-10-02T15:27:55.316Z,79.88
2022-10-02T15:30:27.912Z,79.86
2022-10-02T15:33:20.442Z,80.03
2022-10-02T15:36:14.614Z,79.52
2022-10-02T15:39:17.883Z,79.56
2022-10-02T15:42:10.237Z,79.58
2022-10-02T15:45:27.585Z,79.87
2022-10-02T15:48:26.774Z,79.92
2022-10-02T15:51:16.620Z,80.15
2022-10-02T15:54:16.283Z,79.90
2022-10-02T15:57:13.313Z,79.97
2022-10-02T16:00:03.922Z,79.58
2022-10-02T16:02:53.224Z,80.84
2022-10-02T16:05:43.109Z,80.90
2022-10-02T16:08:43.201Z,80.48
2022-10-02T16:11:31.922Z,80.79
2022-10-02T16:14:14.410Z,80.86
2022-10-02T16:16:52.073Z,81.10
2022-10-02T16:19:48.084Z,80.79
2022-10-02T16:22:47.137Z,80.86
2022-10-02T16:25:58.318Z,80.83
2022-10-02T16:29:00.932Z,80.91
2022-10-02T16:31:59.809Z,80.64
2022-10-02T16:35:18.350Z,80.63
2022-10-02T16:38:06.274Z,80.94
2022-10-02T16:40:56.851Z,81.05
2022-10-02T16:43:43.414Z,81.31
2022-10-02T16:46:17.675Z,81.38
2022-10-02T16:49:27.082Z,81.70
2022-10-02T16:52:20.681Z,81.88
2022-10-02T16:55:04.669Z,81.72
2022-10-02T16:57:49.926Z,81.99
2022-10-02T17:01:07.455Z,81.82
2022-10-02T17:04:05.892Z,82.53
2022-10-02T17:06:46.205Z,82.57
2022-10-02T17:09:25.630Z,82.39
2022-10-02T17:12:22.406Z,82.25
2022-10-02T17:15:00.346Z,82.63
2022-10-02T17:17:42.394Z,82.63
2022-10-02T17:20:23.587Z,82.99
2022-10-02T17:23:22.796Z,83.06
2022-10-02T17:26:20.315Z,83.27
2022-10-02T17:29:05.386Z,83.06
2022-10-02T17:31:58.504Z,83.13
2022-10-02T17:34:46.061Z,83.14
2022-10-02T17:37:17.290Z,83.29
2022-10-02T17:40:10.699Z,83.33
2022-10-02T17:43:16.962Z,83.66
2022-10-02T17:46:17.311Z,83.69
2022-10-02T17:49:02.710Z,84.19
2022-10-02T17:51:58.241Z,84.09
2022-10-02T17:55:08.723Z,84.24
2022-10-02T17:57:53.150Z,84.43
2022-10-02T18:00:26.193Z,84.52
2022-10-02T18:03:23.670Z,84.76
2022-10-02T18:06:21.961Z,84.64
2022-10-02T18:09:09.669Z,84.68
2022-10-02T18:11:50.784Z,84.88
2022-10-02T18:15:02.028Z,85.09
2022-10-02T18:17:54.859Z,84.99
2022-10-02T18:20:57.372Z,85.63
2022-10-02T18:24:22.421Z,85.51
2022-10-02T18:27:10.979Z,85.79
2022-10-02T18:30:00.446Z,85.97
2022-10-02T18:33:09.357Z,85.76
2022-10-02T18:35:54.279Z,86.15
2022-10-02T18:38:32.156Z,86.20
2022-10-02T18:41:19.561Z,86.18
2022-10-02T18:44:20.842Z,86.50
2022-10-02T18:47:21.105Z,86.47
2022-10-02T18:50:12.285Z,86.49
2022-10-02T18:52:59.585Z,86.40
2022-10-02T18:56:00.885Z,86.75
2022-10-02T18:58:56.452Z,86.89
2022-10-02T19:02:10.422Z,87.41
2022-10-02T19:04:58.999Z,87.06
2022-10-02T19:07:41.720Z,87.18
2022-10-02T19:10:21.223Z,87.04
2022-10-02T19:12:57.177Z,87.55
2022-10-02T19:15:32.721Z,87.59
2022-10-02T19:18:06.609Z,87.54
2022-10-02T19:20:40.922Z,87.60
2022-10-02T19:23:20.815Z,87.35
2022-10-02T19:25:56.095Z,87.37
2022-10-02T19:28:31.250Z,87.37
2022-10-02T19:31:10.299Z,87.28
2022-10-02T19:33:51.300Z,87.45
2022-10-02T19:36:28.161Z,87.12
2022-10-02T19:39:10.217Z,87.85
2022-10-02T19:41:43.594Z,87.86
2022-10-02T19:44:23.266Z,87.93
2022-10-02T19:46:58.928Z,87.75
2022-10-02T19:49:38.321Z,87.86
2022-10-02T19:53:07.263Z,87.93
2022-10-02T19:55:42.277Z,87.94
2022-10-02T19:58:40.391Z,88.01
2022-10-02T20:01:19.479Z,88.15
2022-10-02T20:03:56.280Z,88.35
2022-10-02T20:06:34.543Z,88.21
2022-10-02T20:09:17.590Z,88.59
2022-10-02T20:11:59.357Z,88.44
2022-10-02T20:14:39.651Z,88.42
2022-10-02T20:17:13.449Z,88.53
2022-10-02T20:19:51.799Z,88.42
2022-10-02T20:22:51.210Z,88.56
2022-10-02T20:25:30.169Z,88.56
2022-10-02T20:28:20.961Z,88.53
2022-10-02T20:30:58.510Z,88.36
2022-10-02T20:33:39.840Z,88.20
2022-10-02T20:36:16.966Z,88.02
2022-10-02T20:39:10.837Z,88.28
2022-10-02T20:41:57.494Z,88.30
2022-10-02T20:44:30.984Z,88.36
2022-10-02T20:47:32.136Z,88.55
2022-10-02T20:50:25.408Z,88.69
2022-10-02T20:53:22.107Z,89.05
2022-10-02T20:56:06.686Z,88.89
2022-10-02T20:59:15.141Z,89.18
2022-10-02T21:02:04.816Z,89.06
2022-10-02T21:04:57.598Z,88.98
2022-10-02T21:08:01.119Z,89.03
2022-10-02T21:11:01.706Z,89.08
2022-10-02T21:13:35.803Z,89.30
2022-10-02T21:16:38.419Z,89.27
2022-10-02T21:19:26.910Z,89.08
2022-10-02T21:22:35.027Z,89.24
2022-10-02T21:25:27.979Z,89.42
2022-10-02T21:28:08.032Z,89.43
2022-10-02T21:31:01.022Z,89.61
2022-10-02T21:33:40.413Z,89.78
2022-10-02T21:36:36.405Z,89.38
2022-10-02T21:39:27.854Z,89.65
2022-10-02T21:42:26.628Z,89.57
2022-10-02T21:45:32.807Z,89.69
2022-10-02T21:48:53.670Z,89.76
2022-10-02T21:51:59.597Z,89.77
2022-10-02T21:55:10.899Z,90.04
2022-10-02T21:58:31.672Z,90.12
2022-10-02T22:01:51.846Z,90.11
2022-10-02T22:04:51.126Z,90.29
2022-10-02T22:07:36.092Z,90.26
2022-10-02T22:10:10.352Z,90.18
2022-10-02T22:13:09.576Z,90.40
2022-10-02T22:15:52.327Z,90.45
2022-10-02T22:18:45.208Z,90.55
2022-10-02T22:21:34.998Z,90.69
2022-10-02T22:24:44.255Z,90.63
2022-10-02T22:27:33.132Z,90.46
2022-10-02T22:30:05.258Z,90.82
2022-10-02T22:33:10.690Z,91.20
2022-10-02T22:36:11.028Z,91.32
2022-10-02T22:38:53.194Z,91.35
2022-10-02T22:41:38.637Z,91.96
2022-10-02T22:44:34.679Z,91.66
2022-10-02T22:47:13.099Z,91.39
2022-10-02T22:49:54.241Z,91.60
2022-10-02T22:52:42.374Z,91.53
2022-10-02T22:55:21.417Z,91.27
2022-10-02T22:58:02.816Z,91.21
2022-10-02T23:00:51.629Z,91.15
2022-10-02T23:03:54.656Z,91.33
2022-10-02T23:06:43.967Z,91.59
2022-10-02T23:09:27.889Z,91.74
2022-10-02T23:12:37.907Z,91.55
2022-10-02T23:15:29.835Z,91.72
2022-10-02T23:18:19.740Z,91.21
2022-10-02T23:21:02.463Z,91.56
2022-10-02T23:24:08.610Z,91.76
2022-10-02T23:26:51.338Z,91.85
2022-10-02T23:29:39.306Z,91.97
2022-10-02T23:32:27.115Z,91.75
2022-10-02T23:35:20.326Z,91.96
2022-10-02T23:38:00.817Z,92.36
2022-10-02T23:41:12.454Z,91.89
2022-10-02T23:44:17.065Z,92.28
2022-10-02T23:46:51.273Z,92.44
2022-10-02T23:49:33.292Z,92.26
2022-10-02T23:52:30.534Z,91.91
2022-10-02T23:55:40.144Z,92.37
2022-10-02T23:58:38.770Z,91.91
